sensor_id;sensor_type;location;lat;lon;timestamp;P1;durP1;ratioP1;P2;durP2;ratioP2
7529;SDS011;3806;52.270;10.544;2023-07-13T00:00:23;4.80;;;2.00;;
7529;SDS011;3806;52.270;10.544;2023-07-13T00:02:49;3.65;;;1.67;;
7529;SDS011;3806;52.270;10.544;2023-07-13T00:05:14;3.05;;;2.00;;
7529;SDS011;3806;52.270;10.544;2023-07-13T00:07:40;3.22;;;1.80;;
7529;SDS011;3806;52.270;10.544;2023-07-13T00:10:05;5.78;;;1.80;;
7529;SDS011;3806;52.270;10.544;2023-07-13T00:12:33;4.07;;;1.92;;
7529;SDS011;3806;52.270;10.544;2023-07-13T00:15:01;2.75;;;1.63;;
7529;SDS011;3806;52.270;10.544;2023-07-13T00:17:29;4.88;;;1.80;;
7529;SDS011;3806;52.270;10.544;2023-07-13T00:19:55;3.70;;;2.00;;
7529;SDS011;3806;52.270;10.544;2023-07-13T00:22:21;4.05;;;1.92;;
7529;SDS011;3806;52.270;10.544;2023-07-13T00:24:50;2.85;;;2.25;;
7529;SDS011;3806;52.270;10.544;2023-07-13T00:27:17;6.65;;;1.83;;
7529;SDS011;3806;52.270;10.544;2023-07-13T00:29:43;3.75;;;1.85;;
7529;SDS011;3806;52.270;10.544;2023-07-13T00:32:09;4.25;;;2.20;;
7529;SDS011;3806;52.270;10.544;2023-07-13T00:34:36;5.18;;;2.28;;
7529;SDS011;3806;52.270;10.544;2023-07-13T00:37:03;3.78;;;1.77;;
7529;SDS011;3806;52.270;10.544;2023-07-13T00:39:31;4.13;;;2.10;;
7529;SDS011;3806;52.270;10.544;2023-07-13T00:41:57;4.43;;;2.15;;
7529;SDS011;3806;52.270;10.544;2023-07-13T00:44:22;3.97;;;1.90;;
7529;SDS011;3806;52.270;10.544;2023-07-13T00:46:48;4.15;;;2.05;;
7529;SDS011;3806;52.270;10.544;2023-07-13T00:49:16;3.17;;;1.58;;
7529;SDS011;3806;52.270;10.544;2023-07-13T00:51:46;4.88;;;2.13;;
7529;SDS011;3806;52.270;10.544;2023-07-13T00:54:17;7.78;;;2.13;;
7529;SDS011;3806;52.270;10.544;2023-07-13T00:56:47;3.00;;;1.98;;
7529;SDS011;3806;52.270;10.544;2023-07-13T00:59:14;3.70;;;2.00;;
7529;SDS011;3806;52.270;10.544;2023-07-13T01:01:41;3.90;;;2.33;;
7529;SDS011;3806;52.270;10.544;2023-07-13T01:04:07;4.15;;;2.28;;
7529;SDS011;3806;52.270;10.544;2023-07-13T01:06:34;4.15;;;2.17;;
7529;SDS011;3806;52.270;10.544;2023-07-13T01:09:01;4.10;;;2.08;;
7529;SDS011;3806;52.270;10.544;2023-07-13T01:11:26;2.75;;;1.88;;
7529;SDS011;3806;52.270;10.544;2023-07-13T01:13:52;4.07;;;1.60;;
7529;SDS011;3806;52.270;10.544;2023-07-13T01:16:20;3.53;;;2.03;;
7529;SDS011;3806;52.270;10.544;2023-07-13T01:18:51;2.78;;;1.77;;
7529;SDS011;3806;52.270;10.544;2023-07-13T01:21:17;2.45;;;1.67;;
7529;SDS011;3806;52.270;10.544;2023-07-13T01:23:43;3.20;;;2.17;;
7529;SDS011;3806;52.270;10.544;2023-07-13T01:26:09;6.13;;;2.22;;
7529;SDS011;3806;52.270;10.544;2023-07-13T01:28:36;4.47;;;2.00;;
7529;SDS011;3806;52.270;10.544;2023-07-13T01:31:02;6.07;;;2.63;;
7529;SDS011;3806;52.270;10.544;2023-07-13T01:33:28;5.97;;;2.08;;
7529;SDS011;3806;52.270;10.544;2023-07-13T01:35:54;3.53;;;2.20;;
7529;SDS011;3806;52.270;10.544;2023-07-13T01:38:22;4.10;;;2.28;;
7529;SDS011;3806;52.270;10.544;2023-07-13T01:40:49;6.15;;;2.83;;
7529;SDS011;3806;52.270;10.544;2023-07-13T01:43:15;3.22;;;1.95;;
7529;SDS011;3806;52.270;10.544;2023-07-13T01:45:41;4.32;;;1.67;;
7529;SDS011;3806;52.270;10.544;2023-07-13T01:48:08;4.57;;;1.95;;
7529;SDS011;3806;52.270;10.544;2023-07-13T01:50:34;2.60;;;1.90;;
7529;SDS011;3806;52.270;10.544;2023-07-13T01:53:00;4.90;;;1.90;;
7529;SDS011;3806;52.270;10.544;2023-07-13T01:55:27;4.55;;;2.28;;
7529;SDS011;3806;52.270;10.544;2023-07-13T01:57:52;4.25;;;1.90;;
7529;SDS011;3806;52.270;10.544;2023-07-13T02:00:18;3.83;;;1.73;;
7529;SDS011;3806;52.270;10.544;2023-07-13T02:02:44;3.97;;;2.08;;
7529;SDS011;3806;52.270;10.544;2023-07-13T02:05:10;4.95;;;2.30;;
7529;SDS011;3806;52.270;10.544;2023-07-13T02:07:36;3.97;;;2.05;;
7529;SDS011;3806;52.270;10.544;2023-07-13T02:10:02;5.07;;;2.17;;
7529;SDS011;3806;52.270;10.544;2023-07-13T02:12:28;4.82;;;1.67;;
7529;SDS011;3806;52.270;10.544;2023-07-13T02:14:53;3.58;;;1.88;;
7529;SDS011;3806;52.270;10.544;2023-07-13T02:17:19;4.13;;;2.45;;
7529;SDS011;3806;52.270;10.544;2023-07-13T02:19:45;3.85;;;2.20;;
7529;SDS011;3806;52.270;10.544;2023-07-13T02:22:11;2.85;;;2.30;;
7529;SDS011;3806;52.270;10.544;2023-07-13T02:24:36;4.50;;;2.17;;
7529;SDS011;3806;52.270;10.544;2023-07-13T02:27:03;3.70;;;2.10;;
7529;SDS011;3806;52.270;10.544;2023-07-13T02:29:29;2.95;;;2.00;;
7529;SDS011;3806;52.270;10.544;2023-07-13T02:31:54;3.40;;;2.03;;
7529;SDS011;3806;52.270;10.544;2023-07-13T02:34:19;3.97;;;1.88;;
7529;SDS011;3806;52.270;10.544;2023-07-13T02:36:45;7.13;;;1.98;;
7529;SDS011;3806;52.270;10.544;2023-07-13T02:39:11;3.92;;;2.03;;
7529;SDS011;3806;52.270;10.544;2023-07-13T02:41:38;3.83;;;1.80;;
7529;SDS011;3806;52.270;10.544;2023-07-13T02:44:04;7.70;;;2.17;;
7529;SDS011;3806;52.270;10.544;2023-07-13T02:46:30;5.53;;;2.17;;
7529;SDS011;3806;52.270;10.544;2023-07-13T02:48:56;3.10;;;1.85;;
7529;SDS011;3806;52.270;10.544;2023-07-13T02:51:21;3.97;;;1.90;;
7529;SDS011;3806;52.270;10.544;2023-07-13T02:53:47;4.30;;;2.33;;
7529;SDS011;3806;52.270;10.544;2023-07-13T02:56:12;3.20;;;2.00;;
7529;SDS011;3806;52.270;10.544;2023-07-13T02:58:38;2.70;;;2.00;;
7529;SDS011;3806;52.270;10.544;2023-07-13T03:01:07;4.00;;;2.30;;
7529;SDS011;3806;52.270;10.544;2023-07-13T03:03:34;4.57;;;1.95;;
7529;SDS011;3806;52.270;10.544;2023-07-13T03:06:00;2.50;;;1.95;;
7529;SDS011;3806;52.270;10.544;2023-07-13T03:08:28;2.97;;;2.22;;
7529;SDS011;3806;52.270;10.544;2023-07-13T03:11:04;2.03;;;1.70;;
7529;SDS011;3806;52.270;10.544;2023-07-13T03:13:32;2.78;;;1.73;;
7529;SDS011;3806;52.270;10.544;2023-07-13T03:15:58;3.50;;;1.80;;
7529;SDS011;3806;52.270;10.544;2023-07-13T03:18:25;4.80;;;2.22;;
7529;SDS011;3806;52.270;10.544;2023-07-13T03:20:52;4.47;;;2.35;;
7529;SDS011;3806;52.270;10.544;2023-07-13T03:23:18;2.78;;;2.03;;
7529;SDS011;3806;52.270;10.544;2023-07-13T03:25:44;3.05;;;1.92;;
7529;SDS011;3806;52.270;10.544;2023-07-13T03:28:10;1.95;;;1.60;;
7529;SDS011;3806;52.270;10.544;2023-07-13T03:30:37;3.80;;;2.00;;
7529;SDS011;3806;52.270;10.544;2023-07-13T03:33:03;3.63;;;2.08;;
7529;SDS011;3806;52.270;10.544;2023-07-13T03:35:28;4.05;;;1.98;;
7529;SDS011;3806;52.270;10.544;2023-07-13T03:37:54;4.20;;;2.35;;
7529;SDS011;3806;52.270;10.544;2023-07-13T03:40:20;4.03;;;2.00;;
7529;SDS011;3806;52.270;10.544;2023-07-13T03:42:45;5.50;;;2.13;;
7529;SDS011;3806;52.270;10.544;2023-07-13T03:45:11;4.20;;;1.63;;
7529;SDS011;3806;52.270;10.544;2023-07-13T03:47:37;4.35;;;1.95;;
7529;SDS011;3806;52.270;10.544;2023-07-13T03:50:02;5.15;;;1.98;;
7529;SDS011;3806;52.270;10.544;2023-07-13T03:52:28;5.40;;;2.05;;
7529;SDS011;3806;52.270;10.544;2023-07-13T03:54:54;3.63;;;2.05;;
7529;SDS011;3806;52.270;10.544;2023-07-13T03:57:19;3.30;;;1.80;;
7529;SDS011;3806;52.270;10.544;2023-07-13T03:59:45;2.67;;;2.10;;
7529;SDS011;3806;52.270;10.544;2023-07-13T04:02:10;3.67;;;2.05;;
7529;SDS011;3806;52.270;10.544;2023-07-13T04:04:36;4.28;;;2.15;;
7529;SDS011;3806;52.270;10.544;2023-07-13T04:07:05;2.25;;;1.52;;
7529;SDS011;3806;52.270;10.544;2023-07-13T04:09:32;5.40;;;1.75;;
7529;SDS011;3806;52.270;10.544;2023-07-13T04:11:57;3.00;;;1.63;;
7529;SDS011;3806;52.270;10.544;2023-07-13T04:14:23;5.60;;;1.92;;
7529;SDS011;3806;52.270;10.544;2023-07-13T04:16:48;4.50;;;1.75;;
7529;SDS011;3806;52.270;10.544;2023-07-13T04:19:14;6.70;;;1.90;;
7529;SDS011;3806;52.270;10.544;2023-07-13T04:21:39;4.05;;;1.90;;
7529;SDS011;3806;52.270;10.544;2023-07-13T04:24:05;3.92;;;1.60;;
7529;SDS011;3806;52.270;10.544;2023-07-13T04:26:30;5.00;;;1.88;;
7529;SDS011;3806;52.270;10.544;2023-07-13T04:28:56;7.85;;;2.45;;
7529;SDS011;3806;52.270;10.544;2023-07-13T04:31:22;2.53;;;1.58;;
7529;SDS011;3806;52.270;10.544;2023-07-13T04:33:48;4.20;;;2.20;;
7529;SDS011;3806;52.270;10.544;2023-07-13T04:36:15;5.70;;;2.10;;
7529;SDS011;3806;52.270;10.544;2023-07-13T04:38:41;3.55;;;1.85;;
7529;SDS011;3806;52.270;10.544;2023-07-13T04:41:07;7.35;;;2.50;;
7529;SDS011;3806;52.270;10.544;2023-07-13T04:43:34;3.70;;;1.85;;
7529;SDS011;3806;52.270;10.544;2023-07-13T04:46:03;5.03;;;1.80;;
7529;SDS011;3806;52.270;10.544;2023-07-13T04:48:30;3.50;;;1.55;;
7529;SDS011;3806;52.270;10.544;2023-07-13T04:50:56;1.90;;;1.50;;
7529;SDS011;3806;52.270;10.544;2023-07-13T04:53:23;3.47;;;1.52;;
7529;SDS011;3806;52.270;10.544;2023-07-13T04:55:49;3.85;;;1.48;;
7529;SDS011;3806;52.270;10.544;2023-07-13T04:58:14;5.60;;;1.77;;
7529;SDS011;3806;52.270;10.544;2023-07-13T05:00:40;2.47;;;1.38;;
7529;SDS011;3806;52.270;10.544;2023-07-13T05:03:05;3.92;;;1.50;;
7529;SDS011;3806;52.270;10.544;2023-07-13T05:05:31;3.35;;;1.50;;
7529;SDS011;3806;52.270;10.544;2023-07-13T05:07:56;3.55;;;1.40;;
7529;SDS011;3806;52.270;10.544;2023-07-13T05:10:22;3.70;;;1.30;;
7529;SDS011;3806;52.270;10.544;2023-07-13T05:12:48;2.28;;;1.17;;
7529;SDS011;3806;52.270;10.544;2023-07-13T05:15:13;3.88;;;1.48;;
7529;SDS011;3806;52.270;10.544;2023-07-13T05:17:39;4.85;;;1.73;;
7529;SDS011;3806;52.270;10.544;2023-07-13T05:20:05;3.63;;;1.10;;
7529;SDS011;3806;52.270;10.544;2023-07-13T05:22:32;2.28;;;1.30;;
7529;SDS011;3806;52.270;10.544;2023-07-13T05:25:00;3.35;;;1.42;;
7529;SDS011;3806;52.270;10.544;2023-07-13T05:27:26;5.22;;;2.00;;
7529;SDS011;3806;52.270;10.544;2023-07-13T05:29:51;5.05;;;1.58;;
7529;SDS011;3806;52.270;10.544;2023-07-13T05:32:17;3.70;;;1.65;;
7529;SDS011;3806;52.270;10.544;2023-07-13T05:34:43;5.45;;;1.40;;
7529;SDS011;3806;52.270;10.544;2023-07-13T05:37:09;3.63;;;1.40;;
7529;SDS011;3806;52.270;10.544;2023-07-13T05:39:35;2.22;;;1.20;;
7529;SDS011;3806;52.270;10.544;2023-07-13T05:42:01;3.20;;;1.58;;
7529;SDS011;3806;52.270;10.544;2023-07-13T05:44:27;2.40;;;1.05;;
7529;SDS011;3806;52.270;10.544;2023-07-13T05:46:52;3.80;;;1.30;;
7529;SDS011;3806;52.270;10.544;2023-07-13T05:49:20;3.10;;;1.35;;
7529;SDS011;3806;52.270;10.544;2023-07-13T05:51:45;3.28;;;0.98;;
7529;SDS011;3806;52.270;10.544;2023-07-13T05:54:11;4.25;;;1.23;;
7529;SDS011;3806;52.270;10.544;2023-07-13T05:56:36;2.40;;;1.40;;
7529;SDS011;3806;52.270;10.544;2023-07-13T05:59:02;4.38;;;1.05;;
7529;SDS011;3806;52.270;10.544;2023-07-13T06:01:29;4.80;;;1.15;;
7529;SDS011;3806;52.270;10.544;2023-07-13T06:03:55;1.77;;;0.98;;
7529;SDS011;3806;52.270;10.544;2023-07-13T06:06:21;4.32;;;1.42;;
7529;SDS011;3806;52.270;10.544;2023-07-13T06:08:47;3.67;;;1.13;;
7529;SDS011;3806;52.270;10.544;2023-07-13T06:11:17;5.72;;;1.25;;
7529;SDS011;3806;52.270;10.544;2023-07-13T06:13:44;3.95;;;1.23;;
7529;SDS011;3806;52.270;10.544;2023-07-13T06:16:10;6.20;;;1.20;;
7529;SDS011;3806;52.270;10.544;2023-07-13T06:18:36;4.53;;;1.75;;
7529;SDS011;3806;52.270;10.544;2023-07-13T06:21:15;3.92;;;1.25;;
7529;SDS011;3806;52.270;10.544;2023-07-13T06:23:43;8.13;;;1.30;;
7529;SDS011;3806;52.270;10.544;2023-07-13T06:26:09;4.05;;;1.20;;
7529;SDS011;3806;52.270;10.544;2023-07-13T06:28:36;7.55;;;1.42;;
7529;SDS011;3806;52.270;10.544;2023-07-13T06:31:02;6.20;;;1.70;;
7529;SDS011;3806;52.270;10.544;2023-07-13T06:33:33;4.78;;;1.33;;
7529;SDS011;3806;52.270;10.544;2023-07-13T06:35:59;4.75;;;1.73;;
7529;SDS011;3806;52.270;10.544;2023-07-13T06:38:24;5.28;;;1.40;;
7529;SDS011;3806;52.270;10.544;2023-07-13T06:40:50;5.15;;;1.45;;
7529;SDS011;3806;52.270;10.544;2023-07-13T06:43:15;6.10;;;1.33;;
7529;SDS011;3806;52.270;10.544;2023-07-13T06:45:43;6.03;;;1.15;;
7529;SDS011;3806;52.270;10.544;2023-07-13T06:48:14;4.18;;;1.40;;
7529;SDS011;3806;52.270;10.544;2023-07-13T06:50:41;2.65;;;1.45;;
7529;SDS011;3806;52.270;10.544;2023-07-13T06:53:07;2.78;;;1.15;;
7529;SDS011;3806;52.270;10.544;2023-07-13T06:55:32;3.30;;;1.20;;
7529;SDS011;3806;52.270;10.544;2023-07-13T06:57:58;4.18;;;1.63;;
7529;SDS011;3806;52.270;10.544;2023-07-13T07:00:23;3.88;;;1.30;;
7529;SDS011;3806;52.270;10.544;2023-07-13T07:02:49;3.83;;;1.17;;
7529;SDS011;3806;52.270;10.544;2023-07-13T07:05:14;8.02;;;1.77;;
7529;SDS011;3806;52.270;10.544;2023-07-13T07:07:40;4.15;;;1.40;;
7529;SDS011;3806;52.270;10.544;2023-07-13T07:10:06;3.08;;;1.17;;
7529;SDS011;3806;52.270;10.544;2023-07-13T07:12:32;2.47;;;1.10;;
7529;SDS011;3806;52.270;10.544;2023-07-13T07:14:57;3.40;;;1.25;;
7529;SDS011;3806;52.270;10.544;2023-07-13T07:17:23;4.78;;;1.50;;
7529;SDS011;3806;52.270;10.544;2023-07-13T07:19:48;7.25;;;1.55;;
7529;SDS011;3806;52.270;10.544;2023-07-13T07:22:14;4.65;;;1.73;;
7529;SDS011;3806;52.270;10.544;2023-07-13T07:24:39;5.45;;;1.70;;
7529;SDS011;3806;52.270;10.544;2023-07-13T07:27:05;4.78;;;2.30;;
7529;SDS011;3806;52.270;10.544;2023-07-13T07:29:30;5.75;;;1.60;;
7529;SDS011;3806;52.270;10.544;2023-07-13T07:31:56;6.22;;;1.90;;
7529;SDS011;3806;52.270;10.544;2023-07-13T07:34:21;2.17;;;1.13;;
7529;SDS011;3806;52.270;10.544;2023-07-13T07:36:47;6.60;;;1.90;;
7529;SDS011;3806;52.270;10.544;2023-07-13T07:39:12;6.55;;;1.73;;
7529;SDS011;3806;52.270;10.544;2023-07-13T07:41:38;3.40;;;1.70;;
7529;SDS011;3806;52.270;10.544;2023-07-13T07:44:03;4.57;;;1.17;;
7529;SDS011;3806;52.270;10.544;2023-07-13T07:46:29;4.00;;;1.45;;
7529;SDS011;3806;52.270;10.544;2023-07-13T07:48:55;3.50;;;1.27;;
7529;SDS011;3806;52.270;10.544;2023-07-13T07:51:21;5.90;;;1.67;;
7529;SDS011;3806;52.270;10.544;2023-07-13T07:53:47;7.07;;;1.85;;
7529;SDS011;3806;52.270;10.544;2023-07-13T07:56:12;4.40;;;1.30;;
7529;SDS011;3806;52.270;10.544;2023-07-13T07:58:41;9.38;;;1.75;;
7529;SDS011;3806;52.270;10.544;2023-07-13T08:01:07;2.95;;;1.23;;
7529;SDS011;3806;52.270;10.544;2023-07-13T08:03:32;2.95;;;1.05;;
7529;SDS011;3806;52.270;10.544;2023-07-13T08:05:58;4.80;;;1.30;;
7529;SDS011;3806;52.270;10.544;2023-07-13T08:08:24;5.18;;;1.02;;
7529;SDS011;3806;52.270;10.544;2023-07-13T08:10:50;2.00;;;0.90;;
7529;SDS011;3806;52.270;10.544;2023-07-13T08:13:15;3.85;;;1.02;;
7529;SDS011;3806;52.270;10.544;2023-07-13T08:15:41;4.38;;;1.33;;
7529;SDS011;3806;52.270;10.544;2023-07-13T08:18:07;1.50;;;0.73;;
7529;SDS011;3806;52.270;10.544;2023-07-13T08:20:36;9.73;;;1.58;;
7529;SDS011;3806;52.270;10.544;2023-07-13T08:23:03;4.07;;;1.02;;
7529;SDS011;3806;52.270;10.544;2023-07-13T08:25:28;3.03;;;0.98;;
7529;SDS011;3806;52.270;10.544;2023-07-13T08:27:54;5.10;;;1.25;;
7529;SDS011;3806;52.270;10.544;2023-07-13T08:30:19;1.63;;;0.80;;
7529;SDS011;3806;52.270;10.544;2023-07-13T08:32:45;3.92;;;1.65;;
7529;SDS011;3806;52.270;10.544;2023-07-13T08:35:10;2.05;;;0.90;;
7529;SDS011;3806;52.270;10.544;2023-07-13T08:37:36;2.45;;;1.13;;
7529;SDS011;3806;52.270;10.544;2023-07-13T08:40:02;1.35;;;0.95;;
7529;SDS011;3806;52.270;10.544;2023-07-13T08:42:33;2.85;;;1.20;;
7529;SDS011;3806;52.270;10.544;2023-07-13T08:45:17;4.97;;;0.88;;
7529;SDS011;3806;52.270;10.544;2023-07-13T08:47:57;1.55;;;0.85;;
7529;SDS011;3806;52.270;10.544;2023-07-13T08:50:30;5.32;;;0.88;;
7529;SDS011;3806;52.270;10.544;2023-07-13T08:53:00;2.17;;;1.13;;
7529;SDS011;3806;52.270;10.544;2023-07-13T08:55:32;3.55;;;0.90;;
7529;SDS011;3806;52.270;10.544;2023-07-13T08:58:04;3.83;;;1.10;;
7529;SDS011;3806;52.270;10.544;2023-07-13T09:00:41;5.57;;;0.95;;
7529;SDS011;3806;52.270;10.544;2023-07-13T09:03:16;3.33;;;1.00;;
7529;SDS011;3806;52.270;10.544;2023-07-13T09:05:46;3.25;;;0.88;;
7529;SDS011;3806;52.270;10.544;2023-07-13T09:08:32;1.65;;;0.98;;
7529;SDS011;3806;52.270;10.544;2023-07-13T09:11:11;2.55;;;1.27;;
7529;SDS011;3806;52.270;10.544;2023-07-13T09:14:04;2.47;;;0.80;;
7529;SDS011;3806;52.270;10.544;2023-07-13T09:17:25;2.10;;;0.80;;
7529;SDS011;3806;52.270;10.544;2023-07-13T09:19:57;3.95;;;1.52;;
7529;SDS011;3806;52.270;10.544;2023-07-13T09:22:39;4.88;;;0.90;;
7529;SDS011;3806;52.270;10.544;2023-07-13T09:27:47;3.28;;;1.00;;
7529;SDS011;3806;52.270;10.544;2023-07-13T09:32:39;5.57;;;1.25;;
7529;SDS011;3806;52.270;10.544;2023-07-13T09:35:16;4.55;;;1.45;;
7529;SDS011;3806;52.270;10.544;2023-07-13T09:37:45;6.78;;;1.10;;
7529;SDS011;3806;52.270;10.544;2023-07-13T09:40:14;5.78;;;1.02;;
7529;SDS011;3806;52.270;10.544;2023-07-13T09:42:50;2.38;;;1.02;;
7529;SDS011;3806;52.270;10.544;2023-07-13T09:45:26;2.85;;;1.10;;
7529;SDS011;3806;52.270;10.544;2023-07-13T09:47:58;3.63;;;1.00;;
7529;SDS011;3806;52.270;10.544;2023-07-13T09:50:44;3.25;;;1.10;;
7529;SDS011;3806;52.270;10.544;2023-07-13T09:53:11;3.15;;;1.00;;
7529;SDS011;3806;52.270;10.544;2023-07-13T09:55:41;2.83;;;1.10;;
7529;SDS011;3806;52.270;10.544;2023-07-13T10:00:37;2.47;;;1.00;;
7529;SDS011;3806;52.270;10.544;2023-07-13T10:03:05;2.30;;;1.05;;
7529;SDS011;3806;52.270;10.544;2023-07-13T10:05:41;7.03;;;1.73;;
7529;SDS011;3806;52.270;10.544;2023-07-13T10:08:16;2.17;;;1.00;;
7529;SDS011;3806;52.270;10.544;2023-07-13T10:10:43;2.50;;;1.10;;
7529;SDS011;3806;52.270;10.544;2023-07-13T10:13:30;4.07;;;1.45;;
7529;SDS011;3806;52.270;10.544;2023-07-13T10:16:02;2.17;;;0.98;;
7529;SDS011;3806;52.270;10.544;2023-07-13T10:18:31;2.47;;;1.50;;
7529;SDS011;3806;52.270;10.544;2023-07-13T10:21:10;4.28;;;1.67;;
7529;SDS011;3806;52.270;10.544;2023-07-13T10:23:38;3.70;;;0.93;;
7529;SDS011;3806;52.270;10.544;2023-07-13T10:26:04;2.50;;;0.90;;
7529;SDS011;3806;52.270;10.544;2023-07-13T10:28:36;4.20;;;1.52;;
7529;SDS011;3806;52.270;10.544;2023-07-13T10:31:04;2.80;;;0.82;;
7529;SDS011;3806;52.270;10.544;2023-07-13T10:33:36;4.97;;;1.23;;
7529;SDS011;3806;52.270;10.544;2023-07-13T10:36:20;3.50;;;1.05;;
7529;SDS011;3806;52.270;10.544;2023-07-13T10:38:55;3.05;;;1.10;;
7529;SDS011;3806;52.270;10.544;2023-07-13T10:41:24;3.25;;;1.35;;
7529;SDS011;3806;52.270;10.544;2023-07-13T10:43:53;10.65;;;1.73;;
7529;SDS011;3806;52.270;10.544;2023-07-13T10:46:22;4.82;;;1.20;;
7529;SDS011;3806;52.270;10.544;2023-07-13T10:49:04;3.45;;;1.08;;
7529;SDS011;3806;52.270;10.544;2023-07-13T10:51:32;2.80;;;1.33;;
7529;SDS011;3806;52.270;10.544;2023-07-13T10:56:50;3.10;;;1.45;;
7529;SDS011;3806;52.270;10.544;2023-07-13T10:59:23;5.95;;;1.52;;
7529;SDS011;3806;52.270;10.544;2023-07-13T11:01:55;3.05;;;0.90;;
7529;SDS011;3806;52.270;10.544;2023-07-13T11:04:41;3.20;;;1.30;;
7529;SDS011;3806;52.270;10.544;2023-07-13T11:07:10;3.65;;;1.25;;
7529;SDS011;3806;52.270;10.544;2023-07-13T11:17:24;5.70;;;1.08;;
7529;SDS011;3806;52.270;10.544;2023-07-13T11:19:53;4.07;;;1.40;;
7529;SDS011;3806;52.270;10.544;2023-07-13T11:22:25;2.30;;;1.10;;
7529;SDS011;3806;52.270;10.544;2023-07-13T11:25:27;4.22;;;1.20;;
7529;SDS011;3806;52.270;10.544;2023-07-13T11:30:40;3.05;;;1.25;;
7529;SDS011;3806;52.270;10.544;2023-07-13T11:35:50;2.33;;;1.23;;
7529;SDS011;3806;52.270;10.544;2023-07-13T11:38:28;2.10;;;1.23;;
7529;SDS011;3806;52.270;10.544;2023-07-13T11:41:15;3.35;;;1.10;;
7529;SDS011;3806;52.270;10.544;2023-07-13T11:43:49;3.22;;;1.08;;
7529;SDS011;3806;52.270;10.544;2023-07-13T11:46:20;5.85;;;1.70;;
7529;SDS011;3806;52.270;10.544;2023-07-13T11:48:52;6.07;;;1.30;;
7529;SDS011;3806;52.270;10.544;2023-07-13T11:51:22;2.60;;;1.20;;
7529;SDS011;3806;52.270;10.544;2023-07-13T11:53:53;3.60;;;1.10;;
7529;SDS011;3806;52.270;10.544;2023-07-13T11:56:21;2.17;;;1.10;;
7529;SDS011;3806;52.270;10.544;2023-07-13T11:58:48;3.80;;;1.40;;
7529;SDS011;3806;52.270;10.544;2023-07-13T12:01:27;2.08;;;1.00;;
7529;SDS011;3806;52.270;10.544;2023-07-13T12:04:01;2.38;;;1.30;;
7529;SDS011;3806;52.270;10.544;2023-07-13T12:06:30;4.80;;;1.00;;
7529;SDS011;3806;52.270;10.544;2023-07-13T12:08:58;2.25;;;1.13;;
7529;SDS011;3806;52.270;10.544;2023-07-13T12:11:28;8.15;;;2.05;;
7529;SDS011;3806;52.270;10.544;2023-07-13T12:13:54;4.15;;;1.70;;
7529;SDS011;3806;52.270;10.544;2023-07-13T12:16:23;3.42;;;1.13;;
7529;SDS011;3806;52.270;10.544;2023-07-13T12:18:53;3.22;;;1.05;;
7529;SDS011;3806;52.270;10.544;2023-07-13T12:21:21;1.63;;;0.90;;
7529;SDS011;3806;52.270;10.544;2023-07-13T12:23:52;1.58;;;1.10;;
7529;SDS011;3806;52.270;10.544;2023-07-13T12:26:18;3.95;;;1.33;;
7529;SDS011;3806;52.270;10.544;2023-07-13T12:28:46;3.53;;;1.23;;
7529;SDS011;3806;52.270;10.544;2023-07-13T12:34:03;3.60;;;1.80;;
7529;SDS011;3806;52.270;10.544;2023-07-13T12:36:54;3.25;;;1.13;;
7529;SDS011;3806;52.270;10.544;2023-07-13T12:39:38;2.88;;;1.00;;
7529;SDS011;3806;52.270;10.544;2023-07-13T12:45:01;1.88;;;1.08;;
7529;SDS011;3806;52.270;10.544;2023-07-13T12:47:41;2.88;;;0.90;;
7529;SDS011;3806;52.270;10.544;2023-07-13T12:50:12;2.25;;;1.63;;
7529;SDS011;3806;52.270;10.544;2023-07-13T12:52:41;3.95;;;1.10;;
7529;SDS011;3806;52.270;10.544;2023-07-13T12:55:13;2.83;;;1.02;;
7529;SDS011;3806;52.270;10.544;2023-07-13T12:57:45;4.35;;;1.60;;
7529;SDS011;3806;52.270;10.544;2023-07-13T13:00:26;4.72;;;1.52;;
7529;SDS011;3806;52.270;10.544;2023-07-13T13:02:57;2.33;;;1.08;;
7529;SDS011;3806;52.270;10.544;2023-07-13T13:05:28;4.30;;;1.35;;
7529;SDS011;3806;52.270;10.544;2023-07-13T13:07:55;3.88;;;1.30;;
7529;SDS011;3806;52.270;10.544;2023-07-13T13:10:21;2.78;;;1.20;;
7529;SDS011;3806;52.270;10.544;2023-07-13T13:12:46;5.00;;;1.20;;
7529;SDS011;3806;52.270;10.544;2023-07-13T13:15:12;5.13;;;1.27;;
7529;SDS011;3806;52.270;10.544;2023-07-13T13:17:38;1.75;;;1.10;;
7529;SDS011;3806;52.270;10.544;2023-07-13T13:20:13;2.58;;;1.10;;
7529;SDS011;3806;52.270;10.544;2023-07-13T13:22:43;1.50;;;1.20;;
7529;SDS011;3806;52.270;10.544;2023-07-13T13:25:12;2.13;;;1.13;;
7529;SDS011;3806;52.270;10.544;2023-07-13T13:27:39;2.58;;;1.30;;
7529;SDS011;3806;52.270;10.544;2023-07-13T13:30:10;4.85;;;1.30;;
7529;SDS011;3806;52.270;10.544;2023-07-13T13:32:41;3.15;;;1.30;;
7529;SDS011;3806;52.270;10.544;2023-07-13T13:35:18;1.63;;;1.25;;
7529;SDS011;3806;52.270;10.544;2023-07-13T13:37:45;2.00;;;1.33;;
7529;SDS011;3806;52.270;10.544;2023-07-13T13:40:16;2.90;;;1.33;;
7529;SDS011;3806;52.270;10.544;2023-07-13T13:42:47;4.47;;;1.58;;
7529;SDS011;3806;52.270;10.544;2023-07-13T13:45:13;3.65;;;1.13;;
7529;SDS011;3806;52.270;10.544;2023-07-13T13:47:41;1.98;;;1.30;;
7529;SDS011;3806;52.270;10.544;2023-07-13T13:50:13;2.83;;;1.35;;
7529;SDS011;3806;52.270;10.544;2023-07-13T13:55:20;1.52;;;1.15;;
7529;SDS011;3806;52.270;10.544;2023-07-13T13:57:48;2.85;;;1.20;;
7529;SDS011;3806;52.270;10.544;2023-07-13T14:00:15;1.83;;;1.13;;
7529;SDS011;3806;52.270;10.544;2023-07-13T14:02:42;3.42;;;1.30;;
7529;SDS011;3806;52.270;10.544;2023-07-13T14:05:18;3.45;;;1.33;;
7529;SDS011;3806;52.270;10.544;2023-07-13T14:07:47;2.63;;;1.17;;
7529;SDS011;3806;52.270;10.544;2023-07-13T14:10:15;3.75;;;1.77;;
7529;SDS011;3806;52.270;10.544;2023-07-13T14:12:43;3.72;;;1.40;;
7529;SDS011;3806;52.270;10.544;2023-07-13T14:15:15;2.90;;;1.50;;
7529;SDS011;3806;52.270;10.544;2023-07-13T14:17:46;3.67;;;1.38;;
7529;SDS011;3806;52.270;10.544;2023-07-13T14:20:15;2.13;;;1.20;;
7529;SDS011;3806;52.270;10.544;2023-07-13T14:22:41;3.58;;;1.35;;
7529;SDS011;3806;52.270;10.544;2023-07-13T14:25:13;3.95;;;1.15;;
7529;SDS011;3806;52.270;10.544;2023-07-13T14:27:40;5.65;;;2.08;;
7529;SDS011;3806;52.270;10.544;2023-07-13T14:30:20;4.25;;;1.70;;
7529;SDS011;3806;52.270;10.544;2023-07-13T14:32:46;9.65;;;1.40;;
7529;SDS011;3806;52.270;10.544;2023-07-13T14:35:14;4.00;;;1.40;;
7529;SDS011;3806;52.270;10.544;2023-07-13T14:37:42;5.00;;;1.60;;
7529;SDS011;3806;52.270;10.544;2023-07-13T14:40:12;3.40;;;1.90;;
7529;SDS011;3806;52.270;10.544;2023-07-13T14:42:39;3.08;;;1.42;;
7529;SDS011;3806;52.270;10.544;2023-07-13T14:45:05;2.17;;;1.50;;
7529;SDS011;3806;52.270;10.544;2023-07-13T14:47:37;2.03;;;1.30;;
7529;SDS011;3806;52.270;10.544;2023-07-13T14:50:03;1.63;;;1.20;;
7529;SDS011;3806;52.270;10.544;2023-07-13T14:52:30;3.38;;;1.17;;
7529;SDS011;3806;52.270;10.544;2023-07-13T14:54:55;1.92;;;1.10;;
7529;SDS011;3806;52.270;10.544;2023-07-13T14:57:21;2.42;;;1.17;;
7529;SDS011;3806;52.270;10.544;2023-07-13T14:59:47;2.85;;;1.58;;
7529;SDS011;3806;52.270;10.544;2023-07-13T15:02:17;5.03;;;1.42;;
7529;SDS011;3806;52.270;10.544;2023-07-13T15:04:51;2.95;;;1.45;;
7529;SDS011;3806;52.270;10.544;2023-07-13T15:07:17;3.75;;;1.30;;
7529;SDS011;3806;52.270;10.544;2023-07-13T15:09:44;2.45;;;1.35;;
7529;SDS011;3806;52.270;10.544;2023-07-13T15:12:09;3.33;;;1.40;;
7529;SDS011;3806;52.270;10.544;2023-07-13T15:14:35;2.20;;;1.25;;
7529;SDS011;3806;52.270;10.544;2023-07-13T15:17:01;5.90;;;1.58;;
7529;SDS011;3806;52.270;10.544;2023-07-13T15:19:27;6.18;;;1.60;;
7529;SDS011;3806;52.270;10.544;2023-07-13T15:21:56;3.00;;;1.83;;
7529;SDS011;3806;52.270;10.544;2023-07-13T15:24:23;2.50;;;1.60;;
7529;SDS011;3806;52.270;10.544;2023-07-13T15:26:49;3.00;;;1.58;;
7529;SDS011;3806;52.270;10.544;2023-07-13T15:29:15;4.72;;;1.58;;
7529;SDS011;3806;52.270;10.544;2023-07-13T15:31:41;1.35;;;1.25;;
7529;SDS011;3806;52.270;10.544;2023-07-13T15:34:14;2.70;;;1.27;;
7529;SDS011;3806;52.270;10.544;2023-07-13T15:36:41;2.28;;;1.40;;
7529;SDS011;3806;52.270;10.544;2023-07-13T15:39:08;2.88;;;1.50;;